Time;durP1;ratioP1;P1;durP2;ratioP2;P2;SDS_P1;SDS_P2;PMS_P1;PMS_P2;Temp;Humidity;BMP_temperature;BMP_pressure;BME280_temperature;BME280_humidity;BME280_pressure;Samples;Min_cycle;Max_cycle;Signal;HPM_P1;HPM_P2
2022/12/28 00:14:32;;;;;;;8.18;4.05;;;;;;;-0.03;72.09;101010.91;30992717;28;97004;-68
2022/12/28 00:29:33;;;;;;;4.65;2.65;;;;;;;0.01;72.39;101010.75;30997466;28;97092;-68
2022/12/28 00:44:33;;;;;;;7.38;3.10;;;;;;;-0.03;73.21;100994.34;30995331;28;97329;-68
2022/12/28 00:59:34;;;;;;;6.55;3.38;;;;;;;-0.13;73.21;100990.53;30994473;28;97165;-68
2022/12/28 01:14:34;;;;;;;8.98;3.88;;;;;;;-0.07;73.86;100970.09;30991762;28;96674;-68
2022/12/28 01:29:34;;;;;;;7.05;4.28;;;;;;;-0.04;74.20;100948.97;30991306;28;96777;-68
2022/12/28 01:44:41;;;;;;;5.90;2.97;;;;;;;0.14;74.24;100947.13;30989858;28;96767;-68
2022/12/28 01:59:49;;;;;;;4.47;1.75;;;;;;;0.10;74.45;100934.28;30988565;28;97244;-68
2022/12/28 02:14:51;;;;;;;6.65;3.05;;;;;;;0.02;74.66;100912.91;30986917;28;96771;-68
2022/12/28 02:30:02;;;;;;;6.20;4.03;;;;;;;0.08;75.14;100878.47;30984861;28;96643;-68
2022/12/28 03:00:25;;;;;;;5.72;4.07;;;;;;;0.06;75.43;100851.53;30984595;28;96939;-68
2022/12/28 03:15:33;;;;;;;5.80;3.67;;;;;;;0.09;75.66;100838.25;30980817;28;96586;-68
2022/12/28 03:46:09;;;;;;;9.70;5.53;;;;;;;0.26;75.81;100790.97;30978138;28;96731;-68
2022/12/28 04:01:10;;;;;;;5.43;4.20;;;;;;;0.21;75.93;100779.09;30977566;28;97556;-68
2022/12/28 04:16:12;;;;;;;8.57;4.43;;;;;;;0.23;76.22;100759.69;30975632;28;96670;-68
2022/12/28 04:31:13;;;;;;;3.92;3.17;;;;;;;0.27;76.46;100729.75;30973010;28;96667;-68
2022/12/28 04:46:15;;;;;;;8.63;5.30;;;;;;;0.13;76.61;100712.22;30971805;28;96627;-68
2022/12/28 05:01:18;;;;;;;11.20;4.88;;;;;;;0.08;76.76;100697.72;30987980;28;97007;-68
2022/12/28 05:16:23;;;;;;;7.38;4.93;;;;;;;0.01;76.57;100678.06;30990012;28;96566;-68
2022/12/28 05:31:24;;;;;;;7.63;4.85;;;;;;;-0.04;77.17;100649.50;30989478;28;96754;-68
2022/12/28 05:46:27;;;;;;;8.48;4.55;;;;;;;-0.03;77.68;100652.06;30982342;28;97835;-71
2022/12/28 06:01:31;;;;;;;7.47;5.30;;;;;;;0.13;77.62;100640.66;30987045;28;97137;-74
2022/12/28 06:16:34;;;;;;;8.40;5.07;;;;;;;0.22;77.36;100629.63;30988245;28;97358;-70
2022/12/28 06:31:38;;;;;;;10.10;4.78;;;;;;;0.25;77.32;100618.94;30982020;28;96839;-73
2022/12/28 06:46:38;;;;;;;11.57;5.15;;;;;;;0.21;77.29;100635.78;30985197;28;96705;-70
2022/12/28 07:01:43;;;;;;;8.73;4.18;;;;;;;0.21;77.66;100632.34;30978808;28;96666;-72
2022/12/28 07:16:43;;;;;;;15.93;5.53;;;;;;;0.43;77.56;100624.00;30991118;28;96684;-74
2022/12/28 07:31:44;;;;;;;6.30;4.03;;;;;;;0.60;77.57;100615.09;30984756;28;97551;-72
2022/12/28 07:46:44;;;;;;;7.50;4.40;;;;;;;0.91;77.07;100603.50;30973048;28;96666;-73
2022/12/28 08:01:44;;;;;;;6.25;3.53;;;;;;;1.23;77.46;100608.50;30973605;28;97228;-77
2022/12/28 08:16:45;;;;;;;6.78;3.05;;;;;;;1.52;76.83;100605.72;30973864;28;97581;-72
2022/12/28 08:31:46;;;;;;;7.10;3.65;;;;;;;2.15;76.33;100601.47;30979117;28;97192;-73
2022/12/28 08:46:46;;;;;;;5.97;3.25;;;;;;;3.11;75.51;100578.09;30983124;28;96854;-70
2022/12/28 09:01:47;;;;;;;4.53;2.13;;;;;;;4.18;72.16;100569.16;30982845;28;97246;-71
2022/12/28 09:16:47;;;;;;;3.75;1.48;;;;;;;3.90;72.25;100559.91;30983281;28;96678;-68
2022/12/28 09:31:47;;;;;;;4.65;2.30;;;;;;;4.07;71.61;100545.41;30977247;28;97385;-73
2022/12/28 09:47:07;;;;;;;6.03;2.10;;;;;;;4.37;70.71;100515.81;30976552;28;97165;-69
2022/12/28 10:02:21;;;;;;;7.53;2.05;;;;;;;5.91;68.45;100490.81;30975943;28;96745;-68
2022/12/28 10:17:24;;;;;;;;;;;;;;;5.57;66.96;100467.28;30974500;28;96805;-76
2022/12/28 10:32:25;;;;;;;7.97;2.58;;;;;;;5.19;66.78;100450.22;30979215;28;97660;-70
2022/12/28 10:47:30;;;;;;;8.13;2.40;;;;;;;5.78;65.66;100437.31;30964849;28;97230;-71
2022/12/28 11:02:33;;;;;;;20.08;2.80;;;;;;;9.35;63.98;100404.78;30977745;28;97091;-69
2022/12/28 11:17:36;;;;;;;7.43;2.10;;;;;;;7.36;61.37;100377.22;30967607;28;96997;-77
2022/12/28 11:32:47;;;;;;;6.13;2.38;;;;;;;6.94;60.54;100351.13;30981450;28;96611;-76
2022/12/28 11:47:48;;;;;;;3.50;2.00;;;;;;;6.96;61.51;100317.41;30975850;28;96722;-72
2022/12/28 12:02:49;;;;;;;4.75;1.73;;;;;;;8.50;59.63;100284.94;30981384;28;97120;-72
2022/12/28 12:18:02;;;;;;;5.20;1.53;;;;;;;10.29;55.61;100255.69;30994325;28;96608;-71
2022/12/28 12:33:13;;;;;;;1.53;1.10;;;;;;;7.66;57.80;100237.41;30996100;28;96797;-70
2022/12/28 12:48:26;;;;;;;6.27;1.80;;;;;;;8.02;58.41;100236.59;30969972;28;99273;-71
2022/12/28 13:03:33;;;;;;;4.67;1.93;;;;;;;7.53;59.08;100207.78;30990965;28;98495;-78
2022/12/28 13:18:33;;;;;;;2.83;1.13;;;;;;;7.09;60.20;100206.66;30985341;28;97427;-79
2022/12/28 13:33:34;;;;;;;4.88;1.52;;;;;;;6.98;61.06;100176.88;30981530;28;97298;-77
2022/12/28 13:48:39;;;;;;;3.88;1.40;;;;;;;6.92;61.20;100159.75;30973888;28;97607;-77
2022/12/28 14:03:42;;;;;;;3.72;1.65;;;;;;;6.87;61.91;100154.88;30987211;28;96731;-72
2022/12/28 14:18:44;;;;;;;3.00;1.70;;;;;;;6.71;61.90;100170.56;30986621;28;96714;-68
2022/12/28 14:33:54;;;;;;;6.75;1.80;;;;;;;6.63;62.37;100144.84;30973799;28;96854;-70
2022/12/28 14:48:55;;;;;;;5.32;1.75;;;;;;;6.63;62.84;100136.91;30970199;28;97125;-72
2022/12/28 15:03:59;;;;;;;4.88;1.83;;;;;;;6.50;62.08;100115.22;30963103;28;97179;-73
2022/12/28 15:19:01;;;;;;;3.40;1.35;;;;;;;6.12;63.12;100135.53;30975016;28;97111;-72
2022/12/28 15:34:01;;;;;;;6.57;2.83;;;;;;;6.05;62.96;100133.44;30974760;28;96703;-71
2022/12/28 15:49:03;;;;;;;5.57;2.42;;;;;;;5.99;63.55;100125.28;30966365;28;96817;-71
2022/12/28 16:04:05;;;;;;;6.03;2.80;;;;;;;6.07;64.39;100131.50;30966881;28;96781;-71
2022/12/28 16:19:07;;;;;;;7.57;2.78;;;;;;;6.22;63.74;100152.19;30969816;28;98275;-70
2022/12/28 16:34:16;;;;;;;5.32;2.70;;;;;;;6.31;63.86;100140.75;30964523;28;97358;-73
2022/12/28 16:49:17;;;;;;;8.38;3.33;;;;;;;6.47;64.47;100136.69;30960308;28;97746;-76
2022/12/28 17:04:17;;;;;;;4.53;2.33;;;;;;;6.59;63.91;100124.94;30985775;28;97044;-69
2022/12/28 17:19:18;;;;;;;2.97;1.80;;;;;;;6.73;63.13;100116.50;30982988;28;97354;-74
2022/12/28 17:34:18;;;;;;;5.82;2.38;;;;;;;6.82;63.24;100101.56;30982193;28;96670;-74
2022/12/28 17:49:19;;;;;;;5.93;2.40;;;;;;;6.88;63.07;100105.44;30982298;28;97242;-72
2022/12/28 18:04:19;;;;;;;7.55;2.47;;;;;;;6.97;62.72;100099.25;30969613;28;97468;-74
2022/12/28 18:19:20;;;;;;;7.75;3.00;;;;;;;6.98;62.59;100102.72;30974467;28;97501;-71
2022/12/28 18:34:20;;;;;;;7.38;3.72;;;;;;;6.90;62.44;100099.00;30969040;28;96653;-75
2022/12/28 18:49:21;;;;;;;6.07;2.90;;;;;;;6.81;62.90;100084.00;30967893;28;98694;-72
2022/12/28 19:04:21;;;;;;;8.80;4.38;;;;;;;6.84;62.75;100086.34;30966904;28;96661;-70
2022/12/28 19:19:21;;;;;;;10.63;4.70;;;;;;;6.68;62.86;100076.41;30966260;28;97439;-71
2022/12/28 19:34:22;;;;;;;8.93;4.10;;;;;;;6.65;63.73;100071.41;30964969;28;97292;-70
2022/12/28 19:49:23;;;;;;;12.07;5.63;;;;;;;6.60;63.87;100065.72;30965124;28;97257;-64
2022/12/28 20:04:23;;;;;;;14.65;5.10;;;;;;;6.54;63.70;100053.09;30960463;28;97688;-67
2022/12/28 20:19:23;;;;;;;8.40;3.70;;;;;;;6.52;63.80;100032.06;30971221;28;96807;-67
2022/12/28 20:34:26;;;;;;;5.55;3.40;;;;;;;6.50;63.63;100041.13;30991650;28;97438;-67
2022/12/28 20:49:27;;;;;;;4.78;2.85;;;;;;;6.57;63.66;100040.38;30988981;28;97780;-66
2022/12/28 21:04:28;;;;;;;5.37;3.00;;;;;;;6.59;64.29;100034.94;30988880;28;96728;-69
2022/12/28 21:19:28;;;;;;;8.50;3.15;;;;;;;6.77;64.19;100011.97;30989519;28;96683;-69
2022/12/28 21:34:29;;;;;;;9.70;3.47;;;;;;;6.63;63.71;100020.44;30987961;28;96677;-66
2022/12/28 21:49:29;;;;;;;7.45;3.40;;;;;;;6.37;63.88;100007.06;30986593;28;97318;-68
2022/12/28 22:19:49;;;;;;;6.82;3.00;;;;;;;6.03;64.66;99974.09;30985683;28;96717;-68
2022/12/28 22:34:50;;;;;;;8.77;3.38;;;;;;;5.76;64.75;99975.69;30984195;28;97387;-68
2022/12/28 22:49:50;;;;;;;5.13;3.22;;;;;;;5.66;65.22;99953.75;30981422;28;96610;-68
2022/12/28 23:04:50;;;;;;;5.80;3.63;;;;;;;5.46;65.71;99952.16;30983550;28;97252;-68
2022/12/28 23:35:10;;;;;;;7.38;3.40;;;;;;;5.32;66.35;99921.75;30980753;28;96869;-68
2022/12/28 23:50:13;;;;;;;4.95;2.72;;;;;;;5.24;66.71;99901.31;30978664;28;96663;-68
